Airfield :
LOGIN :

Register | Disclaimer

   EN    FR    IT 

 










Legend :    VFR   Marginal VFR   IFR   Intensive IFR   Very Intensive IFR
Visi :
Ceiling :
>= 8 km
>= 3000ft
5 to 8 km
1000 to 3000 ft
1500m to 5 km
500 to 1000 ft
800 to 1500m
200 to 500 ft
< 800m
< 200 ft
Symbols :   Thunderstorms  Fog  Heavy snow  Heavy precipitations  Wind > 20 kt
SIGMETs :     Misc.  Thunderstorms  Icing  Turbulence  Mountain Waves  Volcanic Ashes






- Airport Elevation : 681 ft
- IATA code : LBA


EGNM - Leeds Bradford

CURRENT METAR :
  • 121250Z 12009KT 0500 R14/1400 -DZ FG BKN002 03/02 Q0982

EXPIRED METARs :
  • 121220Z 12010KT 2500 -DZ BR BKN002 02/02 Q0983
  • 121150Z 14010KT 3200 -DZ BR BKN002 02/02 Q0984
  • 121120Z 13010KT 3500 -DZ BR BKN002 02/02 Q0985
  • 121050Z 13010KT 4500 -DZ BR BKN004 01/01 Q0986
  • 121020Z 13010KT 090V150 4500 -DZ BR BKN004 01/01 Q0987

TAF AMD TAF EGNM
Valid from the 12 at 13:00 until the 13 at 12:00 UTC


121256Z 1213/1312 14010KT 9999 BKN005
TEMPO 1213/1218 3000 RADZ BKN003
PROB30
TEMPO 1213/1218 0300 FG +RA BKN001
BECMG 1217/1220 22008KT SCT005
TEMPO 1218/1312 BKN010
PROB30
TEMPO 1218/1306 9000 -SHRA BKN004
BECMG 1300/1303 28010KT
PROB30
TEMPO 1309/1312 27015G25KT
ATIS : +44 113 250 9696 (x2489)



MET'MAP, your aeronautical weather chart ! - Copyright ORBIFLY December 2007 - Disclaimer

ORBIFLY MET'MAP TEAM :

Programming & Development : Alexandra Zaïnal
Concept & original design : Baudouin d'Aumeries
Assistance for programming : Marc-Olivier Méhu
Technical & hardware support : Manuel Goepfert

Contact : metmap@orbifly.com




SOURCES & CREDITS :

   NOAA